Time;durP1;ratioP1;P1;durP2;ratioP2;P2;SDS_P1;SDS_P2;PMS_P1;PMS_P2;Temp;Humidity;BMP_temperature;BMP_pressure;BME280_temperature;BME280_humidity;BME280_pressure;Samples;Min_cycle;Max_cycle;Signal;HPM_P1;HPM_P2
2023/07/04 00:01:32;;;;;;;1.73;1.52;;;;;;;18.87;63.97;97944.47;5057574;28;20035;-74
2023/07/04 00:03:58;;;;;;;3.92;1.73;;;;;;;18.66;65.04;97950.63;5072060;28;20032;-74
2023/07/04 00:06:27;;;;;;;4.60;3.55;;;;;;;19.40;62.74;97947.44;5052151;28;20081;-74
2023/07/04 00:08:56;;;;;;;1.70;1.60;;;;;;;18.95;63.61;97946.47;5049927;28;20407;-73
2023/07/04 00:11:23;;;;;;;1.92;1.23;;;;;;;18.69;65.02;97945.38;5056060;28;20025;-74
2023/07/04 00:13:52;;;;;;;5.07;1.90;;;;;;;18.80;64.60;97941.31;5050957;28;20036;-74
2023/07/04 00:16:22;;;;;;;1999.90;999.90;;;;;;;18.56;65.66;97946.16;5036726;28;20025;-73
2023/07/04 00:18:48;;;;;;;76.53;72.60;;;;;;;18.59;64.82;97940.91;5069398;28;20039;-74
2023/07/04 00:21:18;;;;;;;5.03;4.53;;;;;;;18.48;65.73;97946.88;5068809;28;20021;-73
2023/07/04 00:23:55;;;;;;;9.20;8.52;;;;;;;18.56;65.43;97951.59;5039556;28;20055;-73
2023/07/04 00:26:26;;;;;;;2.63;2.42;;;;;;;18.64;65.02;97950.94;5057118;28;20626;-73
2023/07/04 00:28:52;;;;;;;10.50;9.80;;;;;;;18.40;65.82;97950.25;5041861;28;20040;-73
2023/07/04 00:31:19;;;;;;;4.95;4.45;;;;;;;18.56;65.87;97948.88;5061741;28;20053;-73
2023/07/04 00:33:46;;;;;;;4.30;4.00;;;;;;;18.56;65.34;97948.88;5055452;28;20236;-73
2023/07/04 00:36:16;;;;;;;4.75;2.45;;;;;;;18.68;65.39;97954.66;5046390;28;20039;-72
2023/07/04 00:38:51;;;;;;;2.70;2.50;;;;;;;18.56;65.59;97952.44;5059342;28;20094;-72
2023/07/04 00:41:20;;;;;;;9.25;8.38;;;;;;;18.25;66.22;97950.53;5044091;28;20041;-72
2023/07/04 00:44:07;;;;;;;4.18;2.88;;;;;;;18.71;64.92;97954.06;5058266;28;20028;-73
2023/07/04 00:46:53;;;;;;;4.95;3.10;;;;;;;18.92;64.60;97954.47;5054813;28;20115;-73
2023/07/04 00:49:22;;;;;;;2.92;2.30;;;;;;;18.88;64.57;97965.16;5045397;28;20037;-73
2023/07/04 00:51:55;;;;;;;7.78;7.28;;;;;;;18.82;64.58;97966.38;5065491;28;20033;-72
2023/07/04 00:54:24;;;;;;;12.07;11.02;;;;;;;19.06;63.73;97967.00;5053981;28;20041;-75
2023/07/04 00:56:52;;;;;;;2.92;2.63;;;;;;;19.03;63.99;97964.06;5063103;28;20842;-73
2023/07/04 00:59:20;;;;;;;6.00;2.63;;;;;;;18.75;64.75;97965.97;5064910;28;20041;-74
2023/07/04 01:01:46;;;;;;;4.80;4.50;;;;;;;18.58;65.22;97965.75;5059238;28;20024;-74
2023/07/04 01:04:12;;;;;;;3.33;2.58;;;;;;;18.56;65.39;97957.06;5057516;28;20101;-74
2023/07/04 01:07:04;;;;;;;3.97;3.08;;;;;;;18.90;64.91;97971.16;5058739;28;20084;-73
2023/07/04 01:09:33;;;;;;;2.92;2.35;;;;;;;18.37;66.42;97964.47;5052514;28;20071;-74
2023/07/04 01:12:02;;;;;;;9.68;8.82;;;;;;;18.27;66.80;97975.56;5034770;28;20029;-74
2023/07/04 01:14:27;;;;;;;66.38;32.47;;;;;;;18.52;66.05;97964.25;5049761;28;20044;-75
2023/07/04 01:16:54;;;;;;;3.83;2.03;;;;;;;18.36;66.72;97957.41;5045317;28;20025;-74
2023/07/04 01:19:25;;;;;;;5.25;2.38;;;;;;;18.29;67.27;97962.44;5049525;28;20068;-75
2023/07/04 01:21:57;;;;;;;4.47;1.60;;;;;;;17.99;68.21;97965.69;5045688;28;20040;-75
2023/07/04 01:24:37;;;;;;;3.25;2.17;;;;;;;18.47;66.50;97961.59;5053528;28;20052;-74
2023/07/04 01:27:02;;;;;;;4.82;2.50;;;;;;;17.76;68.41;97961.97;5068444;28;20044;-74
2023/07/04 01:29:29;;;;;;;5.72;3.25;;;;;;;16.87;70.65;97962.91;5037837;28;20036;-75
2023/07/04 01:31:55;;;;;;;8.30;2.72;;;;;;;17.65;67.99;97964.03;5067840;28;20040;-75
2023/07/04 01:34:21;;;;;;;2.50;1.83;;;;;;;17.76;68.21;97960.03;5062720;28;20021;-75
2023/07/04 01:36:47;;;;;;;2.60;2.40;;;;;;;17.47;69.09;97959.38;5061591;28;20032;-75
2023/07/04 01:39:16;;;;;;;2.80;2.17;;;;;;;17.91;68.25;97957.09;5030948;28;20119;-73
2023/07/04 01:41:46;;;;;;;3.53;1.90;;;;;;;18.01;67.82;97958.84;5055231;28;20136;-73
2023/07/04 01:44:12;;;;;;;3.13;1.63;;;;;;;17.50;69.35;97966.97;5064177;28;20020;-73
2023/07/04 01:46:41;;;;;;;1.30;0.93;;;;;;;17.18;70.47;97958.69;5056914;28;20440;-73
2023/07/04 01:49:07;;;;;;;1.20;1.05;;;;;;;16.82;71.20;97965.69;5057241;28;20394;-73
2023/07/04 01:51:35;;;;;;;2.47;1.17;;;;;;;17.36;69.46;97965.25;5058188;28;20101;-74
2023/07/04 01:54:02;;;;;;;4.43;2.05;;;;;;;17.38;69.69;97973.94;5071250;28;20019;-74
2023/07/04 01:56:29;;;;;;;4.88;2.00;;;;;;;17.04;70.90;97952.34;5072031;28;20025;-73
2023/07/04 01:58:55;;;;;;;1.63;1.10;;;;;;;16.82;71.46;97961.06;5055338;28;20120;-73
2023/07/04 02:01:21;;;;;;;0.93;0.80;;;;;;;16.67;72.00;97963.94;5075882;28;20064;-73
2023/07/04 02:03:47;;;;;;;2.55;1.58;;;;;;;16.29;73.12;97965.66;5054018;28;20017;-73
2023/07/04 02:06:14;;;;;;;2.50;1.38;;;;;;;17.18;70.20;97964.94;5056487;28;20036;-73
2023/07/04 02:08:40;;;;;;;2.40;1.23;;;;;;;16.99;70.47;97960.59;5076346;28;20035;-73
2023/07/04 02:11:06;;;;;;;2.55;1.75;;;;;;;16.70;72.06;97962.56;5076238;28;20032;-73
2023/07/04 02:13:32;;;;;;;4.18;2.38;;;;;;;17.04;71.07;97957.78;5048742;28;20025;-72
2023/07/04 02:16:01;;;;;;;5.90;2.25;;;;;;;17.22;70.79;97957.81;5073455;28;20043;-73
2023/07/04 02:18:34;;;;;;;4.28;2.70;;;;;;;17.03;71.21;97956.19;5043894;28;20059;-73
2023/07/04 02:21:00;;;;;;;6.38;3.00;;;;;;;16.87;72.19;97957.47;5040642;28;20646;-74
2023/07/04 02:23:25;;;;;;;4.80;2.92;;;;;;;16.93;72.04;97961.75;5054160;28;20028;-73
2023/07/04 02:25:53;;;;;;;3.53;1.73;;;;;;;17.10;71.59;97959.34;5075063;28;20115;-73
2023/07/04 02:28:18;;;;;;;7.18;2.45;;;;;;;16.70;72.08;97962.56;5062459;28;20028;-73
2023/07/04 02:30:55;;;;;;;4.35;2.42;;;;;;;17.23;71.03;97956.72;5067665;28;20108;-74
2023/07/04 02:33:20;;;;;;;7.95;3.00;;;;;;;17.05;71.28;97959.41;5053658;28;20047;-73
2023/07/04 02:35:49;;;;;;;173.70;46.75;;;;;;;17.50;69.94;97955.25;5061107;28;20492;-73
2023/07/04 02:38:18;;;;;;;40.25;37.85;;;;;;;17.30;70.75;97961.78;5060543;28;20025;-76
2023/07/04 02:40:47;;;;;;;13.68;12.82;;;;;;;16.84;72.49;97963.47;5054563;28;20021;-74
2023/07/04 02:43:14;;;;;;;1.13;1.13;;;;;;;17.01;71.34;97963.81;5052460;28;20043;-73
2023/07/04 02:45:40;;;;;;;0.90;0.90;;;;;;;16.88;72.23;97964.50;5065439;28;20021;-73
2023/07/04 02:48:09;;;;;;;1.10;1.10;;;;;;;16.79;72.29;97972.50;5057294;28;20494;-74
2023/07/04 02:50:38;;;;;;;1.40;1.33;;;;;;;16.99;71.38;97976.91;5073681;28;20365;-72
2023/07/04 02:53:07;;;;;;;1.42;1.33;;;;;;;16.64;72.78;97975.38;5045510;28;20062;-73
2023/07/04 02:55:34;;;;;;;2.85;1.52;;;;;;;16.81;71.61;97972.22;5073283;28;20028;-73
2023/07/04 02:58:01;;;;;;;2.50;1.48;;;;;;;16.36;73.50;97979.72;5057661;28;20028;-73
2023/07/04 03:00:30;;;;;;;1.83;1.70;;;;;;;16.24;73.62;97983.94;5058309;28;20042;-73
2023/07/04 03:02:56;;;;;;;1.65;1.55;;;;;;;16.17;74.49;97987.00;5056523;28;20048;-73
2023/07/04 03:05:23;;;;;;;3.30;1.67;;;;;;;16.53;74.11;97991.00;5038415;28;20029;-73
2023/07/04 03:07:49;;;;;;;2.10;1.90;;;;;;;16.34;74.86;97987.34;5056872;28;20178;-73
2023/07/04 03:10:17;;;;;;;2.60;1.63;;;;;;;16.74;73.63;97994.31;5048718;28;20106;-72
2023/07/04 03:12:44;;;;;;;1.50;1.40;;;;;;;16.60;73.15;97990.66;5039992;28;20029;-73
2023/07/04 03:15:10;;;;;;;1.30;1.30;;;;;;;16.47;73.47;97997.56;5069109;28;20035;-73
2023/07/04 03:17:42;;;;;;;1.65;1.55;;;;;;;16.09;74.39;98001.19;5060968;28;20075;-74
2023/07/04 03:20:11;;;;;;;1.15;1.15;;;;;;;16.38;73.54;98003.91;5052306;28;20079;-74
2023/07/04 03:22:39;;;;;;;1.20;1.20;;;;;;;16.25;74.57;98005.38;5052789;28;20368;-74
2023/07/04 03:25:05;;;;;;;1.10;1.10;;;;;;;15.90;75.46;98002.94;5045362;28;20398;-73
2023/07/04 03:27:31;;;;;;;1.45;1.42;;;;;;;16.56;73.42;98003.22;5070647;28;20393;-73
2023/07/04 03:29:57;;;;;;;1.65;1.55;;;;;;;16.20;73.96;98010.84;5057234;28;20525;-73
2023/07/04 03:32:24;;;;;;;1.40;1.30;;;;;;;16.10;74.07;98013.69;5063499;28;20483;-73
2023/07/04 03:34:49;;;;;;;6.90;6.43;;;;;;;16.12;74.76;98010.66;5065373;28;20037;-73
2023/07/04 03:37:15;;;;;;;6.38;3.60;;;;;;;16.30;74.87;98016.22;5070696;28;20569;-73
2023/07/04 03:39:41;;;;;;;6.65;3.70;;;;;;;16.61;73.91;98007.81;5053756;28;20078;-74
2023/07/04 03:42:06;;;;;;;8.95;3.53;;;;;;;16.53;73.74;97996.44;5057235;28;20016;-74
2023/07/04 03:44:32;;;;;;;6.93;3.60;;;;;;;16.50;74.75;98002.41;5057102;28;20502;-75
2023/07/04 03:46:57;;;;;;;6.22;3.72;;;;;;;16.51;74.26;98000.56;5063394;28;20029;-74
2023/07/04 03:49:23;;;;;;;7.15;3.25;;;;;;;16.72;73.87;98009.31;5063178;28;20049;-73
2023/07/04 03:51:48;;;;;;;9.25;6.70;;;;;;;16.93;73.02;98014.25;5064190;28;20529;-73
2023/07/04 03:54:13;;;;;;;7.05;3.60;;;;;;;16.69;73.26;98013.41;5042899;28;20041;-73
2023/07/04 03:56:39;;;;;;;6.63;3.35;;;;;;;16.68;74.58;98019.16;5056756;28;20024;-73
2023/07/04 03:59:04;;;;;;;9.18;3.90;;;;;;;16.76;74.20;98018.50;5070132;28;20032;-73
2023/07/04 04:01:29;;;;;;;8.73;3.28;;;;;;;16.86;74.01;98018.41;5056570;28;20451;-74
2023/07/04 04:03:55;;;;;;;6.28;3.30;;;;;;;16.98;73.50;98018.81;5053347;28;20040;-74
2023/07/04 04:06:21;;;;;;;2.80;2.10;;;;;;;16.72;74.25;98020.19;5071422;28;20035;-74
2023/07/04 04:08:47;;;;;;;7.68;3.65;;;;;;;17.15;72.90;98019.16;5070246;28;20041;-73
2023/07/04 04:11:12;;;;;;;6.50;3.58;;;;;;;17.06;73.20;98018.19;5050204;28;20116;-73
2023/07/04 04:13:37;;;;;;;5.97;3.25;;;;;;;17.22;72.95;98020.41;5069823;28;20048;-73
2023/07/04 04:16:03;;;;;;;9.60;3.80;;;;;;;17.35;72.39;98018.91;5052504;28;20063;-73
2023/07/04 04:18:29;;;;;;;9.68;3.70;;;;;;;17.28;72.60;98018.44;5062576;28;20032;-73
2023/07/04 04:20:54;;;;;;;7.88;3.55;;;;;;;17.10;73.30;98016.50;5040057;28;20467;-74
2023/07/04 04:23:21;;;;;;;8.45;3.30;;;;;;;17.29;73.17;98022.78;5053221;28;20109;-74
2023/07/04 04:25:46;;;;;;;8.95;3.95;;;;;;;17.32;72.71;98024.13;5071099;28;20029;-75
2023/07/04 04:28:12;;;;;;;6.60;3.30;;;;;;;17.59;71.95;98030.59;5071146;28;20112;-74
2023/07/04 04:30:38;;;;;;;7.63;3.53;;;;;;;17.50;72.17;98026.06;5052378;28;20413;-75
2023/07/04 04:33:03;;;;;;;6.28;3.38;;;;;;;17.21;73.16;98029.69;5061528;28;20115;-76
2023/07/04 04:35:30;;;;;;;6.30;3.72;;;;;;;17.42;72.96;98035.69;5065111;28;20028;-75
2023/07/04 04:37:56;;;;;;;7.15;3.35;;;;;;;17.39;73.02;98038.97;5061634;28;20032;-75
2023/07/04 04:40:24;;;;;;;7.20;3.45;;;;;;;17.38;73.29;98034.66;5070995;28;20052;-75
2023/07/04 04:42:53;;;;;;;6.38;3.42;;;;;;;17.52;72.91;98035.59;5053427;28;20485;-76
2023/07/04 04:45:21;;;;;;;6.22;3.58;;;;;;;17.66;72.51;98047.38;5069896;28;20039;-76
2023/07/04 04:47:53;;;;;;;5.20;3.33;;;;;;;17.72;72.00;98035.31;5067197;28;20509;-75
2023/07/04 04:50:30;;;;;;;4.88;3.67;;;;;;;17.77;72.46;98045.31;5058166;28;20046;-75
2023/07/04 04:52:57;;;;;;;5.22;3.70;;;;;;;17.60;73.15;98053.97;5067944;28;20032;-75
2023/07/04 04:55:23;;;;;;;5.90;3.33;;;;;;;17.93;71.94;98057.59;5049940;28;20471;-76
2023/07/04 04:57:52;;;;;;;6.85;3.38;;;;;;;17.98;72.26;98059.44;5046346;28;20043;-76
2023/07/04 05:00:18;;;;;;;6.97;3.55;;;;;;;17.77;72.40;98054.31;5062376;28;20029;-75
2023/07/04 05:02:44;;;;;;;5.57;3.45;;;;;;;18.04;71.69;98052.81;5056941;28;20033;-75
2023/07/04 05:05:11;;;;;;;6.35;3.50;;;;;;;18.13;71.61;98067.41;5064379;28;20502;-75
2023/07/04 05:07:36;;;;;;;6.57;3.60;;;;;;;18.12;71.46;98060.31;5039967;28;20417;-75
2023/07/04 05:10:02;;;;;;;8.60;3.58;;;;;;;18.44;70.66;98060.34;5056645;28;20103;-73
2023/07/04 05:12:28;;;;;;;7.57;3.38;;;;;;;18.34;70.79;98055.84;5071026;28;20116;-73
2023/07/04 05:14:53;;;;;;;7.95;3.80;;;;;;;18.26;71.08;98066.63;5054235;28;20112;-73
2023/07/04 05:17:19;;;;;;;4.43;2.97;;;;;;;18.31;70.86;98052.94;5053376;28;20052;-75
2023/07/04 05:19:48;;;;;;;5.88;3.30;;;;;;;18.76;69.61;98065.84;5063218;28;20017;-76
2023/07/04 05:22:13;;;;;;;7.00;3.50;;;;;;;18.58;70.54;98069.41;5068260;28;20491;-75
2023/07/04 05:24:39;;;;;;;4.40;3.38;;;;;;;18.62;70.27;98075.91;5062254;28;20509;-75
2023/07/04 05:27:04;;;;;;;6.47;3.50;;;;;;;18.71;70.19;98082.28;5059658;28;20124;-77
2023/07/04 05:29:30;;;;;;;6.63;3.45;;;;;;;19.09;68.94;98081.03;5064402;28;20028;-77
2023/07/04 05:31:55;;;;;;;5.47;3.70;;;;;;;19.03;68.69;98076.78;5038741;28;20039;-76
2023/07/04 05:34:20;;;;;;;4.93;3.17;;;;;;;19.13;68.33;98076.59;5063857;28;20029;-76
2023/07/04 05:36:46;;;;;;;6.32;3.42;;;;;;;19.10;68.69;98084.56;5067595;28;20028;-75
2023/07/04 05:39:11;;;;;;;7.60;3.95;;;;;;;19.04;68.91;98083.84;5054086;28;20453;-76
2023/07/04 05:41:37;;;;;;;8.10;4.00;;;;;;;19.06;68.81;98070.72;5066080;28;20033;-76
2023/07/04 05:44:05;;;;;;;6.15;3.47;;;;;;;19.09;68.73;98083.75;5061626;28;20632;-73
2023/07/04 05:46:31;;;;;;;6.07;3.63;;;;;;;19.47;67.95;98089.06;5069789;28;20467;-75
2023/07/04 05:48:58;;;;;;;8.52;4.28;;;;;;;19.88;66.61;98081.63;5045916;28;20066;-75
2023/07/04 05:51:24;;;;;;;6.65;3.03;;;;;;;19.39;67.82;98084.31;5059345;28;20044;-75
2023/07/04 05:53:51;;;;;;;7.13;3.10;;;;;;;19.57;67.46;98086.94;5062425;28;20025;-76
2023/07/04 05:56:17;;;;;;;5.68;2.97;;;;;;;19.44;66.92;98082.28;5066022;28;20438;-75
2023/07/04 05:58:45;;;;;;;5.85;3.10;;;;;;;19.54;67.22;98081.25;5062908;28;20136;-75
2023/07/04 06:01:13;;;;;;;6.50;3.20;;;;;;;19.51;66.06;98084.63;5052359;28;20029;-75
2023/07/04 06:03:39;;;;;;;4.72;3.40;;;;;;;20.00;65.58;98090.09;5063113;28;20031;-75
2023/07/04 06:06:26;;;;;;;6.93;3.33;;;;;;;20.42;64.77;98084.19;5059887;28;20040;-76
2023/07/04 06:08:52;;;;;;;4.80;3.05;;;;;;;20.37;63.91;98087.09;5072040;28;20094;-76
2023/07/04 06:11:19;;;;;;;6.93;3.65;;;;;;;19.87;64.30;98085.47;5058564;28;20710;-76
2023/07/04 06:13:44;;;;;;;6.22;3.33;;;;;;;20.17;64.53;98095.72;5058589;28;20029;-76
2023/07/04 06:16:10;;;;;;;7.60;3.10;;;;;;;20.31;63.93;98088.31;5064652;28;20659;-76
2023/07/04 06:18:36;;;;;;;5.30;3.65;;;;;;;20.06;63.09;98088.88;5066611;28;20040;-76
2023/07/04 06:21:09;;;;;;;6.40;3.55;;;;;;;20.15;61.59;98086.19;5058986;28;20064;-76
2023/07/04 06:23:35;;;;;;;7.85;4.10;;;;;;;20.80;59.68;98075.59;5058499;28;20044;-76
2023/07/04 06:26:00;;;;;;;7.40;3.80;;;;;;;20.57;61.11;98083.84;5064070;28;20021;-76
2023/07/04 06:28:26;;;;;;;7.15;4.32;;;;;;;20.43;60.79;98080.34;5065446;28;20128;-76
2023/07/04 06:30:51;;;;;;;8.57;4.25;;;;;;;20.07;61.13;98101.41;5043067;28;20045;-76
2023/07/04 06:33:17;;;;;;;7.18;3.80;;;;;;;19.96;60.40;98100.03;5058118;28;20522;-75
2023/07/04 06:35:43;;;;;;;6.47;3.88;;;;;;;20.22;59.49;98103.84;5065320;28;20028;-76
2023/07/04 06:38:09;;;;;;;8.75;4.32;;;;;;;20.66;59.15;98079.22;5065077;28;20028;-75
2023/07/04 06:40:34;;;;;;;8.52;3.95;;;;;;;20.82;58.67;98095.28;5058933;28;20028;-76
2023/07/04 06:43:00;;;;;;;6.05;3.85;;;;;;;20.72;59.35;98090.06;5059277;28;20031;-76
2023/07/04 06:45:25;;;;;;;9.43;3.92;;;;;;;20.70;59.26;98092.28;5066092;28;20095;-75
2023/07/04 06:47:51;;;;;;;11.55;3.88;;;;;;;20.99;58.44;98092.63;5066392;28;20041;-76
2023/07/04 06:50:16;;;;;;;7.82;4.25;;;;;;;20.44;59.31;98111.28;5058268;28;20111;-75
2023/07/04 06:52:42;;;;;;;9.13;3.90;;;;;;;20.00;59.78;98101.03;5059398;28;20062;-76
2023/07/04 06:55:08;;;;;;;7.15;3.85;;;;;;;20.59;58.92;98102.69;5066174;28;20045;-76
2023/07/04 06:57:33;;;;;;;8.75;4.15;;;;;;;20.84;58.17;98103.97;5048167;28;20501;-76
2023/07/04 06:59:58;;;;;;;9.35;4.22;;;;;;;20.72;58.29;98101.81;5059104;28;20024;-76
2023/07/04 07:02:25;;;;;;;7.15;4.45;;;;;;;20.60;58.71;98121.53;5051281;28;20411;-75
2023/07/04 07:04:50;;;;;;;7.28;4.00;;;;;;;20.44;59.06;98117.53;5052294;28;20029;-76
2023/07/04 07:07:16;;;;;;;9.23;4.25;;;;;;;20.45;59.72;98124.63;5044626;28;20047;-76
2023/07/04 07:09:42;;;;;;;7.75;3.88;;;;;;;20.54;59.37;98128.25;5054244;28;20024;-76
2023/07/04 07:12:11;;;;;;;6.55;4.10;;;;;;;20.10;60.03;98128.16;5057925;28;20368;-76
2023/07/04 07:14:37;;;;;;;6.82;4.32;;;;;;;19.82;60.24;98123.84;5037434;28;20036;-75
2023/07/04 07:17:04;;;;;;;7.18;4.10;;;;;;;20.44;60.43;98123.00;5064611;28;20043;-77
2023/07/04 07:19:29;;;;;;;9.02;4.38;;;;;;;20.42;59.37;98125.25;5057739;28;20023;-76
2023/07/04 07:21:55;;;;;;;7.93;4.07;;;;;;;21.04;57.94;98119.88;5057430;28;20391;-75
2023/07/04 07:24:21;;;;;;;7.45;4.55;;;;;;;20.82;56.97;98122.66;5057340;28;20051;-75
2023/07/04 07:26:46;;;;;;;10.20;4.28;;;;;;;20.61;56.87;98128.63;5050864;28;20457;-76
2023/07/04 07:29:11;;;;;;;10.88;5.18;;;;;;;20.96;56.09;98115.97;5054058;28;20107;-76
2023/07/04 07:31:37;;;;;;;11.75;4.95;;;;;;;21.02;53.65;98114.72;5057443;28;20075;-76
2023/07/04 07:34:03;;;;;;;9.05;5.13;;;;;;;20.83;54.85;98124.25;5053830;28;20508;-76
2023/07/04 07:36:37;;;;;;;12.77;4.50;;;;;;;20.94;54.66;98128.34;5087208;28;20102;-75
2023/07/04 07:39:03;;;;;;;12.80;5.38;;;;;;;20.34;54.47;98134.19;5050766;28;20391;-76
2023/07/04 07:41:31;;;;;;;10.32;4.78;;;;;;;21.13;53.16;98128.97;5034894;28;20191;-76
2023/07/04 07:43:56;;;;;;;10.18;4.60;;;;;;;21.31;52.60;98122.44;5062312;28;20490;-76
2023/07/04 07:46:22;;;;;;;13.10;5.43;;;;;;;20.72;52.68;98133.84;5047130;28;20058;-75
2023/07/04 07:48:48;;;;;;;12.57;4.90;;;;;;;20.93;51.80;98127.56;5057875;28;20402;-75
2023/07/04 07:51:13;;;;;;;13.38;5.35;;;;;;;21.05;52.93;98116.06;5057125;28;20522;-76
2023/07/04 07:53:41;;;;;;;14.90;5.10;;;;;;;21.16;51.02;98111.91;5062549;28;20037;-76
2023/07/04 07:56:08;;;;;;;7.05;4.45;;;;;;;21.60;49.95;98111.78;5048248;28;20025;-76
2023/07/04 07:58:34;;;;;;;12.18;4.80;;;;;;;21.24;51.04;98109.22;5058182;28;20558;-76
2023/07/04 08:00:59;;;;;;;11.13;5.28;;;;;;;21.42;48.91;98106.56;5052167;28;20029;-75
2023/07/04 08:03:26;;;;;;;9.43;4.55;;;;;;;21.32;49.28;98099.41;5035144;28;20028;-74
2023/07/04 08:05:51;;;;;;;10.15;4.80;;;;;;;21.26;49.92;98108.91;5039476;28;20032;-74
2023/07/04 08:08:17;;;;;;;11.40;4.53;;;;;;;21.51;48.64;98108.22;5071366;28;20066;-75
2023/07/04 08:10:43;;;;;;;10.55;4.93;;;;;;;21.61;48.40;98107.91;5070100;28;20025;-74
2023/07/04 08:13:09;;;;;;;10.75;5.03;;;;;;;22.25;47.59;98100.78;5052869;28;20036;-74
2023/07/04 08:15:35;;;;;;;9.15;4.38;;;;;;;21.67;46.35;98106.66;5068892;28;20111;-74
2023/07/04 08:18:05;;;;;;;9.07;4.60;;;;;;;21.85;45.54;98102.84;5033308;28;20124;-74
2023/07/04 08:20:30;;;;;;;11.18;4.28;;;;;;;22.01;45.64;98098.50;5051043;28;20106;-74
2023/07/04 08:22:55;;;;;;;9.45;4.53;;;;;;;22.24;45.34;98098.38;5049895;28;20112;-75
2023/07/04 08:25:21;;;;;;;8.25;4.43;;;;;;;22.01;46.53;98095.75;5049851;28;20040;-74
2023/07/04 08:27:46;;;;;;;9.40;4.55;;;;;;;21.77;45.57;98095.38;5049734;28;20032;-75
2023/07/04 08:30:12;;;;;;;10.73;4.53;;;;;;;22.40;45.39;98103.06;5049620;28;20044;-75
2023/07/04 08:32:37;;;;;;;10.02;4.90;;;;;;;22.30;45.05;98091.59;5049521;28;20021;-74
2023/07/04 08:35:03;;;;;;;8.23;4.75;;;;;;;22.55;44.33;98083.34;5063228;28;20064;-75
2023/07/04 08:37:28;;;;;;;9.15;5.18;;;;;;;21.66;44.73;98094.03;5052183;28;20383;-75
2023/07/04 08:39:55;;;;;;;8.68;4.28;;;;;;;22.15;44.96;98094.84;5067902;28;20040;-75
2023/07/04 08:42:21;;;;;;;10.65;5.05;;;;;;;22.40;44.32;98105.00;5041463;28;20021;-75
2023/07/04 08:44:49;;;;;;;44.63;41.90;;;;;;;22.13;44.54;98102.53;5050116;28;20537;-75
2023/07/04 08:47:17;;;;;;;48.20;12.05;;;;;;;22.08;44.59;98095.28;5049706;28;20025;-75
2023/07/04 08:49:48;;;;;;;9.38;4.43;;;;;;;21.59;44.82;98099.19;5032958;28;20167;-75
2023/07/04 08:52:17;;;;;;;9.65;4.30;;;;;;;22.28;45.26;98102.09;5033196;28;20041;-74
2023/07/04 08:54:43;;;;;;;601.95;85.00;;;;;;;22.66;44.27;98101.13;5049217;28;20518;-75
2023/07/04 08:57:16;;;;;;;78.80;11.07;;;;;;;22.91;41.89;98090.44;5023252;28;20071;-75
2023/07/04 08:59:42;;;;;;;10.18;5.00;;;;;;;22.90;41.89;98100.59;5068528;28;20047;-74
2023/07/04 09:02:28;;;;;;;8.43;6.28;;;;;;;23.36;41.33;98100.63;5041627;28;20059;-75
2023/07/04 09:05:24;;;;;;;7.18;3.92;;;;;;;23.09;40.58;98109.28;5057723;28;20060;-75
2023/07/04 09:08:10;;;;;;;7.07;4.40;;;;;;;23.24;40.93;98100.50;5052890;28;20048;-74
2023/07/04 09:10:52;;;;;;;8.13;4.17;;;;;;;23.45;40.47;98110.81;5056839;28;20043;-75
2023/07/04 09:13:27;;;;;;;7.82;4.60;;;;;;;23.20;40.05;98109.72;5032970;28;20283;-75
2023/07/04 09:15:53;;;;;;;7.50;4.43;;;;;;;22.69;40.26;98122.44;5052385;28;20070;-75
2023/07/04 09:18:56;;;;;;;7.60;4.38;;;;;;;23.75;38.95;98120.69;5041930;28;20027;-75
2023/07/04 09:21:23;;;;;;;8.18;4.55;;;;;;;23.49;38.03;98111.75;5046495;28;20510;-75
2023/07/04 09:23:50;;;;;;;8.15;4.50;;;;;;;23.22;37.44;98124.75;5045650;28;20020;-75
2023/07/04 09:26:21;;;;;;;7.00;4.13;;;;;;;23.59;37.46;98111.38;5032611;28;20045;-75
2023/07/04 09:28:49;;;;;;;6.03;4.00;;;;;;;23.81;37.27;98109.16;5049383;28;20475;-75
2023/07/04 09:31:29;;;;;;;9.32;4.45;;;;;;;24.04;36.83;98102.22;5050756;28;20076;-75
2023/07/04 09:33:55;;;;;;;8.25;4.10;;;;;;;22.86;37.79;98126.28;5043725;28;20033;-75
2023/07/04 09:36:26;;;;;;;6.88;4.68;;;;;;;23.22;36.72;98116.50;5069254;28;20142;-75
2023/07/04 09:39:00;;;;;;;8.23;4.70;;;;;;;23.22;36.40;98113.75;5069212;28;20132;-74
2023/07/04 09:41:29;;;;;;;8.20;4.47;;;;;;;24.02;34.40;98111.94;5053692;28;20041;-75
2023/07/04 09:43:56;;;;;;;8.02;4.30;;;;;;;23.84;35.81;98111.25;5032147;28;20526;-75
2023/07/04 09:46:26;;;;;;;9.38;4.13;;;;;;;24.35;36.70;98112.06;5048342;28;20486;-75
2023/07/04 09:48:54;;;;;;;7.30;4.43;;;;;;;23.34;35.12;98116.66;5030697;28;20051;-74
2023/07/04 09:51:23;;;;;;;8.15;4.35;;;;;;;23.82;34.13;98118.22;5053598;28;20414;-75
2023/07/04 09:53:49;;;;;;;11.48;4.70;;;;;;;23.53;35.23;98119.00;5053970;28;20123;-76
2023/07/04 09:56:26;;;;;;;10.07;5.25;;;;;;;24.28;34.48;98120.88;5053093;28;20113;-75
2023/07/04 09:59:17;;;;;;;8.32;4.78;;;;;;;24.79;34.61;98111.38;5052535;28;20064;-75
2023/07/04 10:01:51;;;;;;;5.78;4.75;;;;;;;24.28;33.82;98107.09;5060365;28;20048;-75
2023/07/04 10:04:33;;;;;;;6.55;4.40;;;;;;;24.19;34.51;98106.34;5054743;28;20040;-75
2023/07/04 10:06:59;;;;;;;10.68;4.25;;;;;;;23.95;35.11;98108.91;5076011;28;20040;-75
2023/07/04 10:09:25;;;;;;;8.65;4.90;;;;;;;24.43;35.33;98103.75;5060347;28;20031;-75
2023/07/04 10:11:54;;;;;;;9.27;5.22;;;;;;;24.21;33.38;98106.81;5056897;28;20478;-75
2023/07/04 10:14:34;;;;;;;6.57;4.30;;;;;;;24.76;33.44;98101.06;5048230;28;20497;-75
2023/07/04 10:17:14;;;;;;;9.88;5.13;;;;;;;25.11;32.82;98084.97;5065614;28;20043;-75
2023/07/04 10:19:42;;;;;;;8.55;5.05;;;;;;;25.03;32.30;98094.13;5028751;28;20103;-75
2023/07/04 10:22:07;;;;;;;7.72;5.15;;;;;;;24.94;32.82;98085.16;5052094;28;20032;-75
2023/07/04 10:24:34;;;;;;;7.13;4.68;;;;;;;24.14;34.38;98095.53;5024313;28;20037;-75
2023/07/04 10:27:02;;;;;;;9.10;5.30;;;;;;;24.91;32.96;98086.63;5041698;28;20104;-75
2023/07/04 10:29:39;;;;;;;7.95;4.80;;;;;;;24.67;33.22;98092.00;5045921;28;20495;-75
2023/07/04 10:32:08;;;;;;;9.25;5.30;;;;;;;24.58;35.23;98099.56;5069288;28;20035;-75
2023/07/04 10:34:34;;;;;;;9.85;5.50;;;;;;;25.25;33.66;98091.75;5043772;28;20506;-75
2023/07/04 10:37:00;;;;;;;9.52;5.72;;;;;;;24.66;33.34;98096.75;5069522;28;20048;-75
2023/07/04 10:39:26;;;;;;;12.68;6.60;;;;;;;24.52;33.12;98098.97;5071220;28;20413;-75
2023/07/04 10:42:11;;;;;;;9.68;6.00;;;;;;;24.26;34.54;98097.56;5058075;28;20040;-75
2023/07/04 10:44:37;;;;;;;12.00;7.18;;;;;;;25.67;32.97;98084.09;5071102;28;20498;-75
2023/07/04 10:47:11;;;;;;;8.57;4.78;;;;;;;25.73;32.50;98068.13;5069325;28;20020;-75
2023/07/04 10:49:42;;;;;;;8.48;4.05;;;;;;;25.48;32.26;98078.38;5068907;28;20032;-75
2023/07/04 10:52:14;;;;;;;9.13;5.18;;;;;;;26.02;32.20;98093.50;5059768;28;20033;-75
2023/07/04 10:54:39;;;;;;;9.63;6.35;;;;;;;24.45;33.46;98087.69;5054849;28;20044;-75
2023/07/04 10:57:13;;;;;;;9.93;5.97;;;;;;;25.04;32.08;98079.22;5058205;28;20084;-76
2023/07/04 10:59:42;;;;;;;12.80;6.75;;;;;;;24.00;33.57;98089.47;5047295;28;20028;-75
2023/07/04 11:02:24;;;;;;;9.27;6.88;;;;;;;23.95;33.61;98097.91;5049755;28;20395;-75
2023/07/04 11:04:50;;;;;;;10.40;6.88;;;;;;;23.78;33.36;98087.03;5068018;28;20356;-75
2023/07/04 11:07:21;;;;;;;10.90;7.13;;;;;;;23.80;34.44;98095.75;5068511;28;20028;-77
2023/07/04 11:09:49;;;;;;;11.82;6.85;;;;;;;24.06;34.48;98077.16;5041882;28;20032;-76
2023/07/04 11:12:17;;;;;;;9.52;7.32;;;;;;;25.36;32.15;98070.06;5069824;28;20383;-76
2023/07/04 11:14:44;;;;;;;13.93;7.63;;;;;;;25.81;31.78;98073.50;5058602;28;20047;-76
2023/07/04 11:17:13;;;;;;;14.20;7.47;;;;;;;24.71;32.66;98088.25;5054038;28;20467;-76
2023/07/04 11:19:56;;;;;;;11.52;7.05;;;;;;;25.08;33.07;98074.63;5059422;28;20032;-75
2023/07/04 11:22:57;;;;;;;9.23;7.20;;;;;;;24.92;32.67;98070.91;5050680;28;20503;-76
2023/07/04 11:25:42;;;;;;;11.65;7.93;;;;;;;24.36;33.78;98078.72;5051318;28;20043;-76
2023/07/04 11:28:41;;;;;;;12.68;7.93;;;;;;;25.17;32.85;98078.06;5050652;28;20040;-76
2023/07/04 11:31:12;;;;;;;14.52;7.70;;;;;;;24.70;32.40;98083.91;5061238;28;20119;-76
2023/07/04 11:33:40;;;;;;;12.70;7.82;;;;;;;25.53;32.28;98069.06;5066856;28;20055;-77
2023/07/04 11:36:08;;;;;;;12.40;8.20;;;;;;;25.03;32.37;98066.56;5060646;28;20020;-76
2023/07/04 11:38:36;;;;;;;11.48;8.30;;;;;;;25.26;32.17;98059.47;5052976;28;20040;-76